Time;durP1;ratioP1;P1;durP2;ratioP2;P2;SDS_P1;SDS_P2;PMS_P1;PMS_P2;Temp;Humidity;BMP_temperature;BMP_pressure;BME280_temperature;BME280_humidity;BME280_pressure;Samples;Min_cycle;Max_cycle;Signal;HPM_P1;HPM_P2
2023/08/27 00:01:07;;;;;;;4.13;2.92;;;;;;;;;;5016801;28;20116;-79
2023/08/27 00:03:33;;;;;;;2.60;2.25;;;;;;;;;;5020901;28;20106;-79
2023/08/27 00:05:58;;;;;;;3.38;2.83;;;;;;;;;;5019806;28;20399;-79
2023/08/27 00:08:24;;;;;;;4.90;2.70;;;;;;;;;;5022685;28;20030;-79
2023/08/27 00:10:49;;;;;;;8.10;2.83;;;;;;;;;;5016467;28;20704;-78
2023/08/27 00:13:14;;;;;;;5.55;2.97;;;;;;;;;;5022952;28;20081;-79
2023/08/27 00:15:46;;;;;;;4.60;3.17;;;;;;;;;;5021604;28;20049;-79
2023/08/27 00:18:12;;;;;;;3.28;2.42;;;;;;;;;;5017653;28;20029;-78
2023/08/27 00:20:40;;;;;;;3.47;3.00;;;;;;;;;;5025503;28;20034;-79
2023/08/27 00:23:05;;;;;;;3.40;2.67;;;;;;;;;;5016878;28;20033;-79
2023/08/27 00:25:31;;;;;;;3.95;2.65;;;;;;;;;;5013802;28;20037;-77
2023/08/27 00:27:56;;;;;;;3.92;2.55;;;;;;;;;;5025303;28;20101;-78
2023/08/27 00:30:21;;;;;;;5.85;2.90;;;;;;;;;;5021823;28;20018;-78
2023/08/27 00:32:47;;;;;;;3.05;2.55;;;;;;;;;;5015778;28;20018;-77
2023/08/27 00:35:12;;;;;;;3.70;2.92;;;;;;;;;;5022938;28;20033;-78
2023/08/27 00:37:37;;;;;;;3.78;2.90;;;;;;;;;;5018428;28;20036;-78
2023/08/27 00:40:03;;;;;;;5.60;2.83;;;;;;;;;;5015857;28;20033;-78
2023/08/27 00:42:29;;;;;;;3.35;2.97;;;;;;;;;;5020181;28;20033;-79
2023/08/27 00:44:54;;;;;;;4.15;3.13;;;;;;;;;;5015657;28;20030;-85
2023/08/27 00:47:20;;;;;;;4.85;3.35;;;;;;;;;;5013809;28;20060;-77
2023/08/27 00:49:45;;;;;;;3.47;2.92;;;;;;;;;;5019924;28;20731;-78
2023/08/27 00:52:12;;;;;;;4.30;3.00;;;;;;;;;;5017325;28;20092;-78
2023/08/27 00:54:40;;;;;;;4.65;3.40;;;;;;;;;;5009039;28;20100;-78
2023/08/27 00:57:06;;;;;;;3.45;3.00;;;;;;;;;;5020649;28;20014;-77
2023/08/27 00:59:32;;;;;;;3.35;2.95;;;;;;;;;;5016307;28;20025;-78
2023/08/27 01:01:58;;;;;;;3.67;2.75;;;;;;;;;;5011762;28;20029;-78
2023/08/27 01:04:23;;;;;;;5.88;2.92;;;;;;;;;;5015800;28;20052;-77
2023/08/27 01:06:49;;;;;;;5.45;2.83;;;;;;;;;;5016384;28;20089;-78
2023/08/27 01:09:36;;;;;;;4.57;3.55;;;;;;;;;;5015078;28;20605;-78
2023/08/27 01:12:17;;;;;;;6.53;3.28;;;;;;;;;;5018117;28;20029;-78
2023/08/27 01:14:47;;;;;;;5.07;3.13;;;;;;;;;;5012482;28;20029;-78
2023/08/27 01:17:16;;;;;;;5.90;3.38;;;;;;;;;;5016218;28;20468;-79
2023/08/27 01:19:42;;;;;;;5.60;3.85;;;;;;;;;;5026262;28;20017;-78
2023/08/27 01:22:07;;;;;;;7.65;4.03;;;;;;;;;;5018358;28;20093;-79
2023/08/27 01:24:33;;;;;;;5.40;3.47;;;;;;;;;;5029827;28;20054;-78
2023/08/27 01:27:11;;;;;;;6.35;3.83;;;;;;;;;;5032033;28;20025;-79
2023/08/27 01:29:57;;;;;;;4.63;3.63;;;;;;;;;;5033365;28;20375;-79
2023/08/27 01:32:28;;;;;;;5.07;3.47;;;;;;;;;;5020520;28;20030;-79
2023/08/27 01:34:55;;;;;;;3.58;3.00;;;;;;;;;;5028876;28;20185;-79
2023/08/27 01:37:21;;;;;;;4.05;3.13;;;;;;;;;;5027869;28;20028;-78
2023/08/27 01:39:46;;;;;;;3.42;2.95;;;;;;;;;;5031857;28;20022;-78
2023/08/27 01:42:12;;;;;;;4.13;3.38;;;;;;;;;;5024842;28;20170;-78
2023/08/27 01:44:38;;;;;;;6.07;3.42;;;;;;;;;;5023443;28;20025;-77
2023/08/27 01:47:04;;;;;;;4.40;3.42;;;;;;;;;;5031739;28;20026;-78
2023/08/27 01:49:30;;;;;;;6.10;3.53;;;;;;;;;;5031875;28;20114;-78
2023/08/27 01:51:55;;;;;;;5.88;3.97;;;;;;;;;;5023260;28;20400;-78
2023/08/27 01:54:20;;;;;;;5.90;3.72;;;;;;;;;;5020741;28;20559;-78
2023/08/27 01:56:46;;;;;;;5.93;4.03;;;;;;;;;;5015767;28;20026;-78
2023/08/27 01:59:11;;;;;;;4.85;3.40;;;;;;;;;;5004829;28;20130;-78
2023/08/27 02:01:36;;;;;;;6.03;3.75;;;;;;;;;;5020935;28;20108;-78
2023/08/27 02:04:03;;;;;;;3.78;3.10;;;;;;;;;;5032555;28;20495;-78
2023/08/27 02:06:29;;;;;;;5.68;4.05;;;;;;;;;;5032996;28;20052;-77
2023/08/27 02:08:55;;;;;;;5.20;3.75;;;;;;;;;;5019922;28;20030;-78
2023/08/27 02:11:20;;;;;;;5.30;3.90;;;;;;;;;;5031311;28;20087;-79
2023/08/27 02:13:45;;;;;;;5.25;3.90;;;;;;;;;;5030229;28;20029;-78
2023/08/27 02:16:11;;;;;;;4.93;3.47;;;;;;;;;;5030909;28;20403;-79
2023/08/27 02:18:36;;;;;;;4.28;3.75;;;;;;;;;;5030306;28;20025;-78
2023/08/27 02:21:02;;;;;;;6.57;4.40;;;;;;;;;;5030020;28;20022;-78
2023/08/27 02:23:27;;;;;;;6.45;4.38;;;;;;;;;;5030652;28;20379;-78
2023/08/27 02:25:52;;;;;;;6.45;4.53;;;;;;;;;;5031027;28;20029;-78
2023/08/27 02:28:18;;;;;;;6.63;3.67;;;;;;;;;;5030432;28;20021;-78
2023/08/27 02:31:09;;;;;;;5.82;4.20;;;;;;;;;;5030093;28;20535;-78
2023/08/27 02:33:35;;;;;;;5.20;4.35;;;;;;;;;;5019823;28;20063;-78
2023/08/27 02:36:01;;;;;;;5.22;3.65;;;;;;;;;;5031463;28;20100;-79
2023/08/27 02:38:26;;;;;;;5.18;3.70;;;;;;;;;;5031842;28;20017;-79
2023/08/27 02:40:51;;;;;;;5.10;3.78;;;;;;;;;;5032334;28;20035;-77
2023/08/27 02:43:16;;;;;;;5.25;3.83;;;;;;;;;;5031919;28;20013;-78
2023/08/27 02:45:42;;;;;;;4.75;3.65;;;;;;;;;;5026954;28;20029;-78
2023/08/27 02:48:07;;;;;;;5.50;3.70;;;;;;;;;;5032260;28;20045;-79
2023/08/27 02:50:33;;;;;;;4.53;3.70;;;;;;;;;;5032933;28;20014;-78
2023/08/27 02:52:58;;;;;;;4.70;3.38;;;;;;;;;;5032806;28;20029;-78
2023/08/27 02:55:27;;;;;;;9.48;3.88;;;;;;;;;;5033923;28;20021;-79
2023/08/27 02:57:52;;;;;;;8.20;3.30;;;;;;;;;;5030447;28;20033;-78
2023/08/27 03:00:17;;;;;;;6.97;3.25;;;;;;;;;;5028866;28;20025;-78
2023/08/27 03:02:43;;;;;;;4.93;3.35;;;;;;;;;;5035896;28;20017;-78
2023/08/27 03:05:08;;;;;;;4.70;3.08;;;;;;;;;;5035810;28;20033;-78
2023/08/27 03:07:33;;;;;;;4.57;3.55;;;;;;;;;;5037196;28;20017;-78
2023/08/27 03:09:59;;;;;;;5.55;3.90;;;;;;;;;;5023617;28;20026;-79
2023/08/27 03:12:24;;;;;;;5.43;3.80;;;;;;;;;;5039851;28;20014;-79
2023/08/27 03:14:55;;;;;;;4.40;3.75;;;;;;;;;;5029505;28;20502;-78
2023/08/27 03:17:20;;;;;;;6.90;4.20;;;;;;;;;;5021962;28;20452;-80
2023/08/27 03:19:46;;;;;;;7.13;4.28;;;;;;;;;;5025497;28;20104;-78
2023/08/27 03:22:11;;;;;;;6.65;4.97;;;;;;;;;;5022763;28;20507;-81
2023/08/27 03:24:36;;;;;;;4.95;3.53;;;;;;;;;;5037591;28;20033;-80
2023/08/27 03:27:02;;;;;;;6.60;3.45;;;;;;;;;;5020580;28;20022;-78
2023/08/27 03:29:29;;;;;;;5.18;4.00;;;;;;;;;;5025975;28;20014;-78
2023/08/27 03:31:54;;;;;;;5.15;3.63;;;;;;;;;;5024930;28;20025;-78
2023/08/27 03:34:20;;;;;;;5.15;4.00;;;;;;;;;;5024548;28;20053;-81
2023/08/27 03:36:45;;;;;;;4.88;3.90;;;;;;;;;;5023580;28;20038;-81
2023/08/27 03:39:11;;;;;;;8.10;3.90;;;;;;;;;;5021765;28;20038;-80
2023/08/27 03:41:37;;;;;;;5.78;4.20;;;;;;;;;;5024242;28;20033;-79
2023/08/27 03:44:02;;;;;;;6.47;4.35;;;;;;;;;;5025886;28;20025;-80
2023/08/27 03:46:27;;;;;;;4.32;3.67;;;;;;;;;;5022461;28;20025;-81
2023/08/27 03:48:53;;;;;;;5.65;3.85;;;;;;;;;;5017142;28;20026;-80
2023/08/27 03:51:18;;;;;;;5.57;3.88;;;;;;;;;;5022165;28;20029;-80
2023/08/27 03:53:43;;;;;;;8.50;4.25;;;;;;;;;;5019301;28;20033;-80
2023/08/27 03:56:09;;;;;;;5.65;3.80;;;;;;;;;;5024351;28;20052;-80
2023/08/27 03:58:34;;;;;;;7.13;4.22;;;;;;;;;;5025052;28;20499;-80
2023/08/27 04:00:59;;;;;;;5.88;3.80;;;;;;;;;;5020344;28;20032;-80
2023/08/27 04:03:25;;;;;;;6.70;4.47;;;;;;;;;;5029437;28;20039;-79
2023/08/27 04:05:50;;;;;;;5.53;4.40;;;;;;;;;;5018271;28;20515;-80
2023/08/27 04:08:16;;;;;;;5.22;3.72;;;;;;;;;;5024748;28;20029;-80
2023/08/27 04:10:52;;;;;;;6.88;4.50;;;;;;;;;;5020809;28;20044;-79
2023/08/27 04:13:18;;;;;;;6.15;4.10;;;;;;;;;;5023226;28;20041;-80
2023/08/27 04:15:45;;;;;;;6.38;4.10;;;;;;;;;;5024571;28;20049;-80
2023/08/27 04:18:11;;;;;;;7.88;4.22;;;;;;;;;;5020259;28;20457;-80
2023/08/27 04:20:36;;;;;;;4.82;3.70;;;;;;;;;;5022161;28;20025;-79
2023/08/27 04:23:01;;;;;;;6.18;4.28;;;;;;;;;;5022357;28;20048;-80
2023/08/27 04:25:27;;;;;;;5.90;4.18;;;;;;;;;;5028702;28;20040;-80
2023/08/27 04:27:53;;;;;;;6.90;4.28;;;;;;;;;;5023322;28;20038;-80
2023/08/27 04:30:18;;;;;;;7.22;3.80;;;;;;;;;;5026334;28;20565;-80
2023/08/27 04:32:43;;;;;;;5.53;3.85;;;;;;;;;;5017450;28;20068;-80
2023/08/27 04:35:09;;;;;;;5.60;4.07;;;;;;;;;;5023658;28;20056;-80
2023/08/27 04:37:35;;;;;;;7.38;4.78;;;;;;;;;;5018784;28;20124;-80
2023/08/27 04:40:01;;;;;;;7.32;4.05;;;;;;;;;;5020690;28;20096;-80
2023/08/27 04:42:26;;;;;;;6.75;4.50;;;;;;;;;;5016928;28;20559;-80
2023/08/27 04:44:51;;;;;;;6.38;4.13;;;;;;;;;;5028164;28;20032;-80
2023/08/27 04:47:16;;;;;;;6.93;4.32;;;;;;;;;;5023511;28;20037;-80
2023/08/27 04:49:42;;;;;;;7.15;4.50;;;;;;;;;;5020392;28;20037;-81
2023/08/27 04:52:07;;;;;;;6.90;4.38;;;;;;;;;;5019408;28;20056;-80
2023/08/27 04:54:33;;;;;;;5.80;4.22;;;;;;;;;;5024414;28;20060;-81
2023/08/27 04:56:58;;;;;;;7.55;4.47;;;;;;;;;;5028387;28;20025;-81
2023/08/27 04:59:24;;;;;;;6.20;4.03;;;;;;;;;;5028696;28;20020;-80
2023/08/27 05:01:51;;;;;;;6.78;4.57;;;;;;;;;;5023691;28;20025;-80
2023/08/27 05:04:17;;;;;;;6.68;4.35;;;;;;;;;;5023622;28;20030;-81
2023/08/27 05:06:42;;;;;;;8.43;4.18;;;;;;;;;;5024611;28;20045;-81
2023/08/27 05:09:07;;;;;;;8.20;4.65;;;;;;;;;;5025183;28;20025;-81
2023/08/27 05:11:33;;;;;;;6.65;4.55;;;;;;;;;;5026744;28;20025;-80
2023/08/27 05:13:58;;;;;;;5.65;4.43;;;;;;;;;;5030119;28;20052;-80
2023/08/27 05:16:23;;;;;;;7.22;4.32;;;;;;;;;;5024524;28;20018;-80
2023/08/27 05:18:48;;;;;;;6.50;4.50;;;;;;;;;;5021606;28;20025;-81
2023/08/27 05:21:14;;;;;;;7.32;3.80;;;;;;;;;;5025238;28;20072;-80
2023/08/27 05:23:39;;;;;;;5.55;4.10;;;;;;;;;;5025533;28;20029;-80
2023/08/27 05:26:05;;;;;;;6.63;4.35;;;;;;;;;;5022432;28;20026;-81
2023/08/27 05:28:30;;;;;;;7.57;5.05;;;;;;;;;;5029816;28;20021;-81
2023/08/27 05:30:55;;;;;;;5.80;4.05;;;;;;;;;;5022422;28;20025;-80
2023/08/27 05:33:21;;;;;;;4.78;3.75;;;;;;;;;;5022343;28;20029;-80
2023/08/27 05:35:46;;;;;;;6.43;4.05;;;;;;;;;;5021167;28;20116;-81
2023/08/27 05:38:12;;;;;;;5.05;3.60;;;;;;;;;;5025763;28;20506;-80
2023/08/27 05:40:37;;;;;;;5.00;3.03;;;;;;;;;;5023946;28;20013;-79
2023/08/27 05:43:02;;;;;;;6.60;4.15;;;;;;;;;;5028052;28;20048;-79
2023/08/27 05:45:28;;;;;;;5.50;3.72;;;;;;;;;;5025499;28;20021;-80
2023/08/27 05:47:53;;;;;;;5.05;3.72;;;;;;;;;;5025248;28;20403;-79
2023/08/27 05:50:18;;;;;;;4.35;3.38;;;;;;;;;;5022898;28;21126;-79
2023/08/27 05:52:44;;;;;;;6.10;4.00;;;;;;;;;;5027171;28;20520;-80
2023/08/27 05:55:09;;;;;;;5.70;3.70;;;;;;;;;;5020958;28;20373;-80
2023/08/27 05:57:34;;;;;;;4.70;3.38;;;;;;;;;;5020996;28;20104;-80
2023/08/27 06:00:00;;;;;;;4.35;3.55;;;;;;;;;;5024859;28;20029;-80
2023/08/27 06:02:26;;;;;;;5.18;3.55;;;;;;;;;;5019254;28;20026;-80
2023/08/27 06:04:51;;;;;;;4.93;3.65;;;;;;;;;;5020911;28;20026;-80
2023/08/27 06:07:16;;;;;;;8.10;3.65;;;;;;;;;;5023132;28;20040;-80
2023/08/27 06:09:42;;;;;;;3.78;3.10;;;;;;;;;;5025072;28;20041;-80
2023/08/27 06:12:07;;;;;;;3.88;3.40;;;;;;;;;;5019967;28;20052;-80
2023/08/27 06:14:34;;;;;;;4.88;3.30;;;;;;;;;;5018992;28;20084;-80
2023/08/27 06:16:59;;;;;;;4.22;3.35;;;;;;;;;;5021390;28;20029;-80
2023/08/27 06:19:24;;;;;;;4.43;3.50;;;;;;;;;;5022361;28;20087;-80
2023/08/27 06:21:50;;;;;;;6.53;3.15;;;;;;;;;;5017951;28;20026;-80
2023/08/27 06:24:15;;;;;;;3.58;2.60;;;;;;;;;;5020665;28;20065;-79
2023/08/27 06:26:40;;;;;;;2.50;2.30;;;;;;;;;;5022848;28;21805;-80
2023/08/27 06:29:06;;;;;;;2.95;2.30;;;;;;;;;;5025002;28;20079;-80
2023/08/27 06:31:32;;;;;;;3.45;2.10;;;;;;;;;;5027687;28;20045;-80
2023/08/27 06:33:57;;;;;;;2.13;1.60;;;;;;;;;;5022075;28;20029;-80
2023/08/27 06:36:22;;;;;;;1.85;1.67;;;;;;;;;;5027686;28;20029;-80
2023/08/27 06:38:48;;;;;;;1.63;1.50;;;;;;;;;;5028530;28;20056;-79
2023/08/27 06:41:13;;;;;;;1.85;1.73;;;;;;;;;;5033722;28;20021;-79
2023/08/27 06:43:38;;;;;;;2.05;1.60;;;;;;;;;;5033882;28;20040;-79
2023/08/27 06:46:31;;;;;;;3.20;2.13;;;;;;;;;;5031841;28;20033;-79
2023/08/27 06:48:57;;;;;;;2.85;1.73;;;;;;;;;;5027436;28;20029;-80
2023/08/27 06:51:22;;;;;;;1.88;1.77;;;;;;;;;;5026242;28;20052;-81
2023/08/27 06:53:47;;;;;;;1.63;1.52;;;;;;;;;;5027842;28;20118;-80
2023/08/27 06:56:13;;;;;;;2.35;1.80;;;;;;;;;;5028383;28;20045;-79
2023/08/27 06:58:38;;;;;;;1.67;1.58;;;;;;;;;;5028837;28;20029;-79
2023/08/27 07:01:04;;;;;;;3.30;1.92;;;;;;;;;;5028748;28;20036;-80
2023/08/27 07:03:30;;;;;;;3.88;1.70;;;;;;;;;;5031713;28;20025;-79
2023/08/27 07:05:56;;;;;;;2.45;1.92;;;;;;;;;;5030916;28;20029;-80
2023/08/27 07:08:21;;;;;;;2.95;1.70;;;;;;;;;;5031038;28;20083;-82
2023/08/27 07:10:46;;;;;;;2.22;2.03;;;;;;;;;;5029457;28;20030;-79
2023/08/27 07:13:12;;;;;;;2.22;1.63;;;;;;;;;;5032064;28;20609;-80
2023/08/27 07:15:37;;;;;;;1.90;1.77;;;;;;;;;;5034483;28;20472;-81
2023/08/27 07:18:02;;;;;;;3.03;1.92;;;;;;;;;;5030094;28;20487;-81
2023/08/27 07:20:28;;;;;;;2.25;1.63;;;;;;;;;;5029368;28;20480;-81
2023/08/27 07:22:53;;;;;;;1.70;1.35;;;;;;;;;;5023473;28;20109;-80
2023/08/27 07:25:21;;;;;;;3.53;1.98;;;;;;;;;;5025980;28;20156;-81
2023/08/27 07:27:46;;;;;;;1.80;1.60;;;;;;;;;;5020276;28;20462;-81
2023/08/27 07:30:12;;;;;;;1.65;1.50;;;;;;;;;;5029547;28;20028;-81
2023/08/27 07:32:37;;;;;;;6.88;1.75;;;;;;;;;;5028758;28;20043;-81
2023/08/27 07:35:03;;;;;;;2.25;1.65;;;;;;;;;;5029760;28;20381;-79
2023/08/27 07:37:28;;;;;;;1.70;1.58;;;;;;;;;;5026200;28;20109;-80
2023/08/27 07:42:33;;;;;;;2.83;1.27;;;;;;;;;;5045680;28;20098;-79
2023/08/27 07:44:59;;;;;;;1.23;1.13;;;;;;;;;;5046143;28;20029;-79
2023/08/27 07:47:34;;;;;;;1.50;1.40;;;;;;;;;;5052071;28;20625;-79
2023/08/27 07:50:00;;;;;;;2.30;1.38;;;;;;;;;;5046856;28;20018;-79
2023/08/27 07:52:25;;;;;;;1.35;1.25;;;;;;;;;;5065329;28;20178;-79
2023/08/27 07:54:50;;;;;;;2.17;1.27;;;;;;;;;;5066357;28;20043;-79
2023/08/27 07:57:16;;;;;;;1.13;1.00;;;;;;;;;;5061123;28;20025;-79
2023/08/27 07:59:43;;;;;;;1.25;1.15;;;;;;;;;;5062389;28;20023;-79
2023/08/27 08:02:08;;;;;;;1.30;1.20;;;;;;;;;;5061699;28;20244;-80
2023/08/27 08:04:33;;;;;;;1.33;1.20;;;;;;;;;;5047759;28;20475;-80
2023/08/27 08:06:59;;;;;;;1.20;1.10;;;;;;;;;;5066045;28;20020;-78
2023/08/27 08:09:24;;;;;;;1.40;1.30;;;;;;;;;;5048650;28;20036;-79
2023/08/27 08:11:49;;;;;;;2.40;1.45;;;;;;;;;;5062423;28;20111;-78
2023/08/27 08:14:33;;;;;;;1.50;1.15;;;;;;;;;;5060661;28;20036;-79
2023/08/27 08:16:58;;;;;;;2.38;1.30;;;;;;;;;;5059506;28;20033;-78
2023/08/27 08:19:23;;;;;;;1.67;1.50;;;;;;;;;;5063884;28;20026;-78
2023/08/27 08:21:49;;;;;;;1.27;1.17;;;;;;;;;;5061031;28;20147;-79
2023/08/27 08:24:14;;;;;;;1.52;1.42;;;;;;;;;;5061478;28;20060;-78
2023/08/27 08:26:39;;;;;;;1.33;1.23;;;;;;;;;;5063967;28;20092;-79
2023/08/27 08:29:05;;;;;;;1.48;1.25;;;;;;;;;;5060526;28;20017;-79
2023/08/27 08:31:30;;;;;;;1.33;1.23;;;;;;;;;;5061980;28;20077;-79
2023/08/27 08:33:55;;;;;;;2.08;1.30;;;;;;;;;;5066377;28;20141;-80
2023/08/27 08:36:43;;;;;;;1.90;1.45;;;;;;;;;;5055718;28;20040;-79
2023/08/27 08:39:09;;;;;;;2.92;1.42;;;;;;;;;;5061251;28;20174;-78
2023/08/27 08:41:40;;;;;;;1.38;1.27;;;;;;;;;;5040756;28;20057;-78
2023/08/27 08:44:24;;;;;;;8.83;1.73;;;;;;;;;;5065273;28;20029;-79
2023/08/27 08:46:50;;;;;;;2.38;1.58;;;;;;;;;;5058492;28;20329;-78
2023/08/27 08:49:20;;;;;;;2.65;1.35;;;;;;;;;;5054877;28;20039;-78
2023/08/27 08:51:46;;;;;;;1.35;1.25;;;;;;;;;;5051705;28;20514;-78
2023/08/27 08:54:15;;;;;;;1.63;1.35;;;;;;;;;;5038740;28;20035;-83
2023/08/27 08:56:45;;;;;;;1.65;1.50;;;;;;;;;;5065946;28;20368;-79
2023/08/27 08:59:11;;;;;;;1.73;1.27;;;;;;;;;;5071362;28;20089;-78
2023/08/27 09:01:38;;;;;;;2.75;1.30;;;;;;;;;;5047379;28;21187;-79
2023/08/27 09:04:06;;;;;;;2.60;1.45;;;;;;;;;;5068373;28;20055;-78
2023/08/27 09:06:34;;;;;;;1.52;1.35;;;;;;;;;;5060561;28;20020;-78
2023/08/27 09:09:01;;;;;;;1.52;1.42;;;;;;;;;;5065524;28;20061;-79
2023/08/27 09:11:27;;;;;;;1.48;1.33;;;;;;;;;;5058365;28;20013;-78
2023/08/27 09:13:53;;;;;;;1.50;1.40;;;;;;;;;;5064901;28;20024;-78
2023/08/27 09:16:18;;;;;;;1.88;1.20;;;;;;;;;;5056051;28;20372;-79
2023/08/27 09:18:43;;;;;;;2.72;1.50;;;;;;;;;;5058761;28;20059;-77
2023/08/27 09:21:09;;;;;;;2.08;1.50;;;;;;;;;;5063100;28;20027;-78
2023/08/27 09:23:37;;;;;;;1.80;1.58;;;;;;;;;;5053167;28;20017;-78
2023/08/27 09:26:04;;;;;;;2.45;1.70;;;;;;;;;;5053068;28;20029;-77
2023/08/27 09:28:29;;;;;;;1.95;1.48;;;;;;;;;;5056000;28;20029;-78
2023/08/27 09:30:55;;;;;;;3.97;1.48;;;;;;;;;;5059777;28;20482;-77
2023/08/27 09:33:43;;;;;;;2.20;1.33;;;;;;;;;;5057588;28;20450;-78
2023/08/27 09:36:09;;;;;;;1.00;1.00;;;;;;;;;;5049107;28;20036;-78
2023/08/27 09:38:34;;;;;;;2.75;1.65;;;;;;;;;;5047143;28;20033;-78
2023/08/27 09:41:12;;;;;;;2.47;1.63;;;;;;;;;;5058725;28;20063;-79
2023/08/27 09:43:37;;;;;;;1.50;1.40;;;;;;;;;;5051923;28;20054;-78
2023/08/27 09:46:08;;;;;;;1.52;1.42;;;;;;;;;;5062846;28;20032;-78
2023/08/27 09:48:34;;;;;;;2.45;1.92;;;;;;;;;;5063877;28;20509;-78
2023/08/27 09:51:05;;;;;;;2.65;1.70;;;;;;;;;;5056925;28;20055;-80
2023/08/27 09:53:31;;;;;;;1.60;1.50;;;;;;;;;;5054282;28;20063;-80
2023/08/27 09:55:56;;;;;;;1.95;1.60;;;;;;;;;;5035585;28;20052;-80
2023/08/27 09:58:25;;;;;;;1.27;1.17;;;;;;;;;;5053353;28;20025;-78
2023/08/27 10:00:58;;;;;;;6.78;1.40;;;;;;;;;;5058165;28;20114;-79
2023/08/27 10:03:23;;;;;;;2.22;1.40;;;;;;;;;;5064095;28;20033;-79
2023/08/27 10:05:49;;;;;;;2.05;1.60;;;;;;;;;;5055487;28;20153;-79
2023/08/27 10:08:15;;;;;;;1.52;1.42;;;;;;;;;;5058018;28;20394;-79
2023/08/27 10:10:41;;;;;;;3.35;1.50;;;;;;;;;;5055348;28;20064;-79
2023/08/27 10:13:06;;;;;;;1.52;1.25;;;;;;;;;;5038386;28;20536;-79
2023/08/27 10:15:36;;;;;;;1.42;1.23;;;;;;;;;;5054283;28;20035;-78
2023/08/27 10:18:04;;;;;;;1.38;1.20;;;;;;;;;;5035020;28;20398;-83
2023/08/27 10:20:31;;;;;;;1.42;1.33;;;;;;;;;;5059481;28;20025;-78
2023/08/27 10:22:57;;;;;;;1.80;1.30;;;;;;;;;;5058348;28;20388;-80
2023/08/27 10:25:23;;;;;;;1.30;1.20;;;;;;;;;;5058899;28;20051;-79
2023/08/27 10:27:50;;;;;;;2.58;1.30;;;;;;;;;;5054805;28;20059;-81
2023/08/27 10:30:16;;;;;;;1.52;1.20;;;;;;;;;;5055770;28;20025;-80
2023/08/27 10:32:42;;;;;;;1.95;1.00;;;;;;;;;;5050354;28;20604;-80
2023/08/27 10:35:09;;;;;;;2.53;1.48;;;;;;;;;;5058080;28;20052;-80
2023/08/27 10:37:37;;;;;;;1.75;1.48;;;;;;;;;;5053139;28;20037;-78
2023/08/27 10:40:08;;;;;;;1.38;1.27;;;;;;;;;;5053234;28;20379;-79
2023/08/27 10:42:36;;;;;;;1.77;1.67;;;;;;;;;;5052988;28;20112;-80
2023/08/27 10:45:25;;;;;;;2.83;1.85;;;;;;;;;;5036633;28;20043;-80
2023/08/27 10:48:21;;;;;;;1.67;1.50;;;;;;;;;;5059880;28;20090;-79
2023/08/27 10:50:51;;;;;;;2.72;1.73;;;;;;;;;;5052405;28;20037;-79
2023/08/27 10:53:18;;;;;;;1.33;1.20;;;;;;;;;;5052508;28;20523;-79
2023/08/27 10:55:52;;;;;;;2.75;1.40;;;;;;;;;;5056395;28;20064;-80
2023/08/27 10:58:22;;;;;;;1.35;1.27;;;;;;;;;;5059330;28;20051;-79
2023/08/27 11:01:07;;;;;;;4.15;1.75;;;;;;;;;;5038157;28;20037;-79
2023/08/27 11:03:53;;;;;;;1.98;1.20;;;;;;;;;;5052928;28;20052;-79
2023/08/27 11:06:20;;;;;;;2.03;1.30;;;;;;;;;;5042215;28;20036;-79
2023/08/27 11:08:52;;;;;;;2.60;1.30;;;;;;;;;;5051230;28;20086;-79
2023/08/27 11:11:23;;;;;;;2.17;1.52;;;;;;;;;;5062762;28;20036;-79
2023/08/27 11:13:48;;;;;;;2.23;1.37;;;;;;;;;;5058929;28;20020;-79
2023/08/27 11:16:15;;;;;;;2.53;1.20;;;;;;;;;;5037134;28;20739;-79
2023/08/27 11:18:50;;;;;;;2.55;1.65;;;;;;;;;;5063468;28;20419;-79
2023/08/27 11:21:48;;;;;;;2.53;1.48;;;;;;;;;;5056420;28;20029;-78
2023/08/27 11:24:15;;;;;;;1.30;1.20;;;;;;;;;;5049269;28;20122;-79
2023/08/27 11:26:41;;;;;;;3.92;1.20;;;;;;;;;;5057742;28;20478;-78
2023/08/27 11:29:08;;;;;;;2.58;1.38;;;;;;;;;;5063333;28;20036;-79
2023/08/27 11:31:33;;;;;;;2.33;1.25;;;;;;;;;;5058030;28;20500;-79
2023/08/27 11:34:01;;;;;;;1.45;1.23;;;;;;;;;;5038608;28;20029;-79
2023/08/27 11:36:26;;;;;;;3.15;1.40;;;;;;;;;;5056559;28;20107;-79
2023/08/27 11:38:58;;;;;;;1.75;1.33;;;;;;;;;;5042932;28;20053;-79
2023/08/27 11:41:24;;;;;;;1.85;1.50;;;;;;;;;;5048693;22;20045;-81
2023/08/27 11:43:56;;;;;;;1.45;1.25;;;;;;;;;;5052671;28;20220;-81
2023/08/27 11:46:22;;;;;;;1.35;1.25;;;;;;;;;;5049621;28;20662;-81
2023/08/27 11:48:48;;;;;;;2.80;1.30;;;;;;;;;;5043357;28;20033;-81
2023/08/27 11:51:15;;;;;;;1.15;1.10;;;;;;;;;;5050588;28;20033;-81
2023/08/27 11:53:41;;;;;;;1.20;0.95;;;;;;;;;;5050929;28;20033;-81
2023/08/27 11:56:07;;;;;;;2.25;1.50;;;;;;;;;;5048215;28;20205;-81
2023/08/27 11:58:33;;;;;;;1.73;1.17;;;;;;;;;;5044726;28;20055;-80
2023/08/27 12:00:58;;;;;;;2.67;1.30;;;;;;;;;;5044360;28;20039;-81
2023/08/27 12:03:24;;;;;;;1.67;1.20;;;;;;;;;;5043326;28;20044;-81
2023/08/27 12:05:50;;;;;;;3.00;1.33;;;;;;;;;;5043440;28;20090;-81
2023/08/27 12:08:16;;;;;;;1.42;1.33;;;;;;;;;;5044340;28;20047;-81
2023/08/27 12:10:44;;;;;;;2.33;1.30;;;;;;;;;;5049773;28;20124;-81
2023/08/27 12:13:10;;;;;;;2.08;1.17;;;;;;;;;;5048403;28;20097;-81
2023/08/27 12:15:36;;;;;;;1.70;1.30;;;;;;;;;;5047699;28;20048;-81
2023/08/27 12:18:11;;;;;;;2.25;1.40;;;;;;;;;;5047762;28;20025;-81
2023/08/27 12:20:36;;;;;;;1.00;0.90;;;;;;;;;;5038260;28;20073;-81
2023/08/27 12:23:12;;;;;;;1.10;1.10;;;;;;;;;;5039458;28;20084;-81
2023/08/27 12:25:52;;;;;;;1.55;1.17;;;;;;;;;;5036531;28;20392;-80
2023/08/27 12:28:18;;;;;;;2.00;1.40;;;;;;;;;;5039563;28;20025;-81
2023/08/27 12:30:53;;;;;;;1.35;1.25;;;;;;;;;;5038570;28;20120;-80
2023/08/27 12:33:19;;;;;;;3.33;1.25;;;;;;;;;;5047749;28;20083;-80
2023/08/27 12:35:45;;;;;;;1.13;0.93;;;;;;;;;;5047673;28;20032;-81
2023/08/27 12:38:11;;;;;;;1.08;1.00;;;;;;;;;;5051658;28;20021;-81
2023/08/27 12:40:37;;;;;;;4.22;1.70;;;;;;;;;;5047717;28;20081;-81
2023/08/27 12:43:03;;;;;;;1.58;1.20;;;;;;;;;;5044530;28;20051;-80
2023/08/27 12:45:29;;;;;;;1.33;1.10;;;;;;;;;;5050071;28;20020;-81
2023/08/27 12:47:54;;;;;;;1.17;1.08;;;;;;;;;;5041020;28;20021;-80
2023/08/27 12:50:19;;;;;;;1.98;1.40;;;;;;;;;;5036731;28;20638;-81
2023/08/27 12:52:45;;;;;;;2.42;1.40;;;;;;;;;;5042804;28;20025;-80
2023/08/27 12:55:10;;;;;;;3.15;1.27;;;;;;;;;;5045715;28;20052;-80
2023/08/27 12:57:39;;;;;;;1.83;1.17;;;;;;;;;;5046283;28;20029;-81
2023/08/27 13:00:09;;;;;;;1.63;1.23;;;;;;;;;;5045758;28;20010;-80
2023/08/27 13:02:34;;;;;;;2.85;1.23;;;;;;;;;;5054153;28;20089;-80
2023/08/27 13:05:01;;;;;;;1.27;1.17;;;;;;;;;;5054190;28;20021;-80
2023/08/27 13:07:28;;;;;;;1.20;1.10;;;;;;;;;;5057642;28;20032;-81
2023/08/27 13:09:53;;;;;;;1.25;0.95;;;;;;;;;;5039693;28;20018;-79
2023/08/27 13:12:18;;;;;;;2.00;1.08;;;;;;;;;;5048674;28;20052;-80
2023/08/27 13:14:44;;;;;;;0.95;0.95;;;;;;;;;;5044729;28;20033;-79
2023/08/27 13:17:09;;;;;;;2.47;1.17;;;;;;;;;;5045433;28;20476;-79
2023/08/27 13:19:35;;;;;;;2.15;0.90;;;;;;;;;;5039759;28;20059;-79
2023/08/27 13:22:00;;;;;;;2.60;1.17;;;;;;;;;;5044450;28;20040;-79
2023/08/27 13:24:26;;;;;;;3.90;1.30;;;;;;;;;;5032457;28;20017;-80
2023/08/27 13:26:51;;;;;;;2.25;1.38;;;;;;;;;;5042776;28;20029;-80
2023/08/27 13:29:17;;;;;;;1.20;1.10;;;;;;;;;;5039509;28;20025;-80
2023/08/27 13:31:42;;;;;;;3.40;1.40;;;;;;;;;;5041124;28;20036;-80
2023/08/27 13:34:08;;;;;;;1.20;1.10;;;;;;;;;;5043905;28;20045;-79
2023/08/27 13:36:33;;;;;;;2.08;1.20;;;;;;;;;;5041948;28;20392;-80
2023/08/27 13:38:59;;;;;;;1.13;1.00;;;;;;;;;;5040713;28;20083;-80
2023/08/27 13:41:24;;;;;;;1.17;1.08;;;;;;;;;;5041232;28;20167;-81
2023/08/27 13:43:50;;;;;;;3.40;1.20;;;;;;;;;;5041068;28;20033;-80
2023/08/27 13:46:16;;;;;;;1.05;1.02;;;;;;;;;;5041525;28;20156;-81
2023/08/27 13:48:41;;;;;;;1.08;1.02;;;;;;;;;;5040610;28;20021;-80
2023/08/27 13:51:07;;;;;;;1.40;1.30;;;;;;;;;;5039265;28;20036;-81
2023/08/27 13:53:32;;;;;;;1.60;1.30;;;;;;;;;;5034242;28;20029;-80
2023/08/27 13:55:57;;;;;;;4.22;1.20;;;;;;;;;;5035549;28;20061;-80
2023/08/27 13:58:23;;;;;;;1.27;1.05;;;;;;;;;;5036522;28;20040;-80
2023/08/27 14:00:48;;;;;;;1.30;1.20;;;;;;;;;;5038012;28;20032;-79
2023/08/27 14:03:13;;;;;;;1.33;1.23;;;;;;;;;;5037333;28;20048;-80
2023/08/27 14:05:42;;;;;;;2.63;1.30;;;;;;;;;;5041078;28;20421;-80
2023/08/27 14:08:07;;;;;;;0.95;0.93;;;;;;;;;;5036517;28;20551;-81
2023/08/27 14:10:37;;;;;;;0.98;0.88;;;;;;;;;;5034556;28;20053;-81
2023/08/27 14:13:03;;;;;;;1.05;0.75;;;;;;;;;;5041843;28;20044;-80
2023/08/27 14:15:29;;;;;;;1.20;0.95;;;;;;;;;;5043978;28;20032;-82
2023/08/27 14:17:54;;;;;;;0.60;0.60;;;;;;;;;;5046413;28;20060;-81
2023/08/27 14:20:19;;;;;;;0.60;0.60;;;;;;;;;;5040077;28;20093;-82
2023/08/27 14:22:45;;;;;;;1.38;1.02;;;;;;;;;;5041028;28;20032;-82
2023/08/27 14:25:10;;;;;;;1.42;0.90;;;;;;;;;;5041039;28;20051;-83
2023/08/27 14:27:36;;;;;;;1.85;1.13;;;;;;;;;;5045995;28;20095;-82
2023/08/27 14:30:01;;;;;;;1.50;1.17;;;;;;;;;;5043175;28;20021;-82
2023/08/27 14:32:26;;;;;;;2.05;1.00;;;;;;;;;;5045053;28;20075;-83
2023/08/27 14:34:53;;;;;;;1.13;0.93;;;;;;;;;;5039730;28;20101;-82
2023/08/27 14:37:18;;;;;;;0.82;0.77;;;;;;;;;;5038565;28;20475;-82
2023/08/27 14:39:45;;;;;;;1.80;1.02;;;;;;;;;;5044372;28;20672;-82
2023/08/27 14:42:10;;;;;;;1.20;1.10;;;;;;;;;;5040262;28;20022;-83
2023/08/27 14:44:36;;;;;;;1.48;0.98;;;;;;;;;;5047517;28;20082;-82